Time;durP1;ratioP1;P1;durP2;ratioP2;P2;SDS_P1;SDS_P2;PMS_P1;PMS_P2;Temp;Humidity;BMP_temperature;BMP_pressure;BME280_temperature;BME280_humidity;BME280_pressure;Samples;Min_cycle;Max_cycle;Signal;HPM_P1;HPM_P2
2023/07/13 00:00:09;;;;;;;;;2.50;2.00;;;;;;;;5098888;27;45526;-46
2023/07/13 00:02:34;;;;;;;;;1.50;1.50;;;;;;;;5098922;27;45203;-46
2023/07/13 00:05:00;;;;;;;;;3.00;3.00;;;;;;;;5098512;27;45434;-46
2023/07/13 00:07:25;;;;;;;;;1.50;1.00;;;;;;;;5098943;27;45326;-50
2023/07/13 00:09:50;;;;;;;;;2.00;2.00;;;;;;;;5098916;27;45307;-46
2023/07/13 00:12:23;;;;;;;;;2.50;1.25;;;;;;;;5098709;27;45398;-49
2023/07/13 00:14:50;;;;;;;;;2.00;2.00;;;;;;;;5098572;27;46282;-48
2023/07/13 00:17:15;;;;;;;;;2.40;1.00;;;;;;;;5097281;27;45551;-49
2023/07/13 00:19:40;;;;;;;;;3.25;2.00;;;;;;;;5098621;27;45203;-49
2023/07/13 00:22:05;;;;;;;;;3.00;1.00;;;;;;;;5098912;27;45481;-47
2023/07/13 00:24:30;;;;;;;;;1.25;1.25;;;;;;;;5098181;27;46155;-46
2023/07/13 00:26:56;;;;;;;;;1.75;1.00;;;;;;;;5098584;27;45248;-47
2023/07/13 00:29:21;;;;;;;;;2.75;1.00;;;;;;;;5098437;27;45223;-49
2023/07/13 00:31:46;;;;;;;;;1.00;1.00;;;;;;;;5098600;27;45333;-45
2023/07/13 00:34:12;;;;;;;;;4.25;1.50;;;;;;;;5097510;27;45290;-49
2023/07/13 00:36:37;;;;;;;;;4.00;2.00;;;;;;;;5098123;27;45358;-48
2023/07/13 00:39:03;;;;;;;;;3.00;2.00;;;;;;;;5098212;27;45244;-49
2023/07/13 00:41:29;;;;;;;;;1.00;1.00;;;;;;;;5098488;27;45327;-49
2023/07/13 00:43:54;;;;;;;;;2.00;2.00;;;;;;;;5098236;27;45357;-48
2023/07/13 00:46:21;;;;;;;;;1.00;1.00;;;;;;;;5097910;27;45517;-47
2023/07/13 00:48:48;;;;;;;;;1.20;1.20;;;;;;;;5096982;27;45416;-50
2023/07/13 00:51:13;;;;;;;;;2.00;2.00;;;;;;;;5098444;27;45322;-49
2023/07/13 00:53:39;;;;;;;;;2.00;2.00;;;;;;;;5097708;27;46162;-48
2023/07/13 00:56:04;;;;;;;;;0.25;0.25;;;;;;;;5097806;27;45461;-48
2023/07/13 00:58:30;;;;;;;;;2.50;2.00;;;;;;;;5097889;27;45327;-50
2023/07/13 01:00:55;;;;;;;;;3.00;1.25;;;;;;;;5098033;27;45322;-48
2023/07/13 01:03:20;;;;;;;;;2.00;1.00;;;;;;;;5097773;27;45483;-46
2023/07/13 01:05:48;;;;;;;;;2.50;2.50;;;;;;;;5097853;27;45520;-47
2023/07/13 01:08:13;;;;;;;;;2.80;1.00;;;;;;;;5097535;27;45368;-44
2023/07/13 01:10:38;;;;;;;;;3.00;1.00;;;;;;;;5097933;27;45487;-46
2023/07/13 01:13:04;;;;;;;;;2.50;1.25;;;;;;;;5097559;27;45900;-49
2023/07/13 01:15:32;;;;;;;;;2.00;2.00;;;;;;;;5097683;27;45338;-50
2023/07/13 01:17:58;;;;;;;;;1.80;1.00;;;;;;;;5097947;27;45313;-45
2023/07/13 01:20:24;;;;;;;;;2.50;2.25;;;;;;;;5098441;27;45444;-47
2023/07/13 01:22:50;;;;;;;;;3.00;1.00;;;;;;;;5097952;27;46204;-51
2023/07/13 01:25:16;;;;;;;;;1.25;1.25;;;;;;;;5097911;27;45320;-50
2023/07/13 01:27:41;;;;;;;;;1.00;1.00;;;;;;;;5098429;27;45325;-49
2023/07/13 01:30:06;;;;;;;;;1.50;1.50;;;;;;;;5098171;27;45378;-47
2023/07/13 01:32:32;;;;;;;;;2.50;1.50;;;;;;;;5097326;27;47012;-47
2023/07/13 01:34:57;;;;;;;;;1.25;1.25;;;;;;;;5097353;27;45335;-49
2023/07/13 01:37:24;;;;;;;;;1.00;1.00;;;;;;;;5097450;27;45818;-47
2023/07/13 01:39:49;;;;;;;;;2.75;1.50;;;;;;;;5097831;27;45332;-49
2023/07/13 01:42:15;;;;;;;;;1.00;1.00;;;;;;;;5097387;27;46100;-49
2023/07/13 01:44:40;;;;;;;;;1.00;1.00;;;;;;;;5097438;27;45399;-47
2023/07/13 01:47:05;;;;;;;;;3.00;3.00;;;;;;;;5097460;27;45457;-48
2023/07/13 01:49:30;;;;;;;;;3.25;2.25;;;;;;;;5079164;27;45282;-49
2023/07/13 01:51:56;;;;;;;;;3.00;1.00;;;;;;;;5097249;27;46089;-49
2023/07/13 01:54:21;;;;;;;;;3.25;2.00;;;;;;;;5097055;27;45532;-46
2023/07/13 01:56:46;;;;;;;;;2.00;2.00;;;;;;;;5097321;27;45373;-51
2023/07/13 01:59:11;;;;;;;;;1.00;1.00;;;;;;;;5098936;27;45294;-48
2023/07/13 02:01:36;;;;;;;;;3.25;2.00;;;;;;;;5100513;27;46274;-45
2023/07/13 02:04:02;;;;;;;;;1.25;1.25;;;;;;;;5100767;27;45431;-51
2023/07/13 02:06:27;;;;;;;;;3.50;1.00;;;;;;;;5100819;27;45670;-49
2023/07/13 02:08:52;;;;;;;;;1.25;1.25;;;;;;;;5100997;27;45467;-49
2023/07/13 02:11:17;;;;;;;;;2.25;1.00;;;;;;;;5099910;27;45478;-47
2023/07/13 02:13:43;;;;;;;;;2.00;2.00;;;;;;;;5100430;27;45621;-47
2023/07/13 02:16:08;;;;;;;;;1.00;1.00;;;;;;;;5100643;27;45232;-48
2023/07/13 02:18:33;;;;;;;;;1.50;0.00;;;;;;;;5100889;27;45292;-49
2023/07/13 02:20:58;;;;;;;;;2.75;1.00;;;;;;;;5100395;27;46277;-49
2023/07/13 02:23:23;;;;;;;;;1.00;1.00;;;;;;;;5100035;27;45452;-50
2023/07/13 02:25:49;;;;;;;;;2.00;2.00;;;;;;;;5100506;27;45312;-49
2023/07/13 02:28:14;;;;;;;;;4.75;1.50;;;;;;;;5100562;27;45419;-47
2023/07/13 02:30:39;;;;;;;;;1.75;1.00;;;;;;;;5100068;27;45454;-49
2023/07/13 02:33:05;;;;;;;;;2.75;1.50;;;;;;;;5100427;27;45366;-46
2023/07/13 02:35:30;;;;;;;;;1.50;1.25;;;;;;;;5100169;27;45369;-45
2023/07/13 02:37:55;;;;;;;;;4.75;3.00;;;;;;;;5100457;27;45338;-47
2023/07/13 02:40:20;;;;;;;;;1.75;1.75;;;;;;;;5099990;27;45562;-47
2023/07/13 02:42:46;;;;;;;;;1.00;1.00;;;;;;;;5100058;27;45569;-48
2023/07/13 02:45:12;;;;;;;;;0.00;0.00;;;;;;;;5100207;27;45204;-47
2023/07/13 02:47:39;;;;;;;;;0.50;0.00;;;;;;;;5099238;27;45625;-49
2023/07/13 02:50:05;;;;;;;;;4.00;1.00;;;;;;;;5081376;27;46316;-45
2023/07/13 02:52:30;;;;;;;;;3.00;1.25;;;;;;;;5099166;27;45328;-49
2023/07/13 02:54:55;;;;;;;;;3.50;1.25;;;;;;;;5099829;27;45550;-45
2023/07/13 02:57:20;;;;;;;;;1.00;1.00;;;;;;;;5100143;27;45357;-46
2023/07/13 02:59:46;;;;;;;;;3.00;1.50;;;;;;;;5099658;27;45409;-47
2023/07/13 03:02:11;;;;;;;;;1.00;1.00;;;;;;;;5099601;27;45307;-47
2023/07/13 03:04:37;;;;;;;;;3.00;1.00;;;;;;;;5099922;27;45461;-48
2023/07/13 03:07:02;;;;;;;;;2.00;2.00;;;;;;;;5099971;27;45277;-50
2023/07/13 03:09:28;;;;;;;;;1.75;1.75;;;;;;;;5099507;27;46140;-48
2023/07/13 03:11:54;;;;;;;;;1.25;1.25;;;;;;;;5098496;27;45347;-46
2023/07/13 03:14:19;;;;;;;;;0.80;0.80;;;;;;;;5099658;27;45453;-49
2023/07/13 03:16:45;;;;;;;;;1.25;1.00;;;;;;;;5081435;27;45268;-48
2023/07/13 03:19:10;;;;;;;;;2.75;2.00;;;;;;;;5099426;27;46256;-48
2023/07/13 03:21:35;;;;;;;;;1.00;1.00;;;;;;;;5099488;27;45402;-48
2023/07/13 03:24:00;;;;;;;;;1.75;1.75;;;;;;;;5099249;27;45325;-48
2023/07/13 03:26:26;;;;;;;;;2.25;1.00;;;;;;;;5099174;27;45480;-47
2023/07/13 03:28:51;;;;;;;;;2.00;0.00;;;;;;;;5098889;27;46166;-49
2023/07/13 03:31:18;;;;;;;;;2.00;1.00;;;;;;;;5098799;27;45312;-47
2023/07/13 03:33:44;;;;;;;;;2.50;1.00;;;;;;;;5099165;27;45284;-49
2023/07/13 03:36:12;;;;;;;;;2.00;0.75;;;;;;;;5099134;27;45216;-49
2023/07/13 03:38:37;;;;;;;;;1.00;1.00;;;;;;;;5098683;27;46214;-47
2023/07/13 03:41:03;;;;;;;;;1.00;1.00;;;;;;;;5099100;27;45293;-48
2023/07/13 03:43:28;;;;;;;;;0.25;0.25;;;;;;;;5099225;27;45304;-47
2023/07/13 03:45:53;;;;;;;;;4.50;1.25;;;;;;;;5099720;27;45405;-50
2023/07/13 03:48:18;;;;;;;;;0.25;0.25;;;;;;;;5098289;27;46140;-53
2023/07/13 03:50:43;;;;;;;;;2.00;1.00;;;;;;;;5099279;27;45334;-50
2023/07/13 03:53:09;;;;;;;;;2.00;1.00;;;;;;;;5099171;27;45370;-48
2023/07/13 03:55:34;;;;;;;;;1.00;1.00;;;;;;;;5099197;27;45355;-47
2023/07/13 03:58:19;;;;;;;;;2.50;0.75;;;;;;;;5098862;27;47196;-47
2023/07/13 04:00:44;;;;;;;;;3.20;2.00;;;;;;;;5084464;27;45454;-44
2023/07/13 04:03:10;;;;;;;;;2.00;1.00;;;;;;;;5098955;27;45536;-49
2023/07/13 04:05:36;;;;;;;;;0.00;0.00;;;;;;;;5099050;27;45286;-46
2023/07/13 04:08:01;;;;;;;;;3.75;1.00;;;;;;;;5098482;27;46143;-46
2023/07/13 04:10:26;;;;;;;;;1.00;1.00;;;;;;;;5098317;27;45518;-49
2023/07/13 04:12:51;;;;;;;;;1.00;1.00;;;;;;;;5097886;27;45247;-49
2023/07/13 04:15:16;;;;;;;;;1.50;1.00;;;;;;;;5098498;27;45224;-48
2023/07/13 04:17:42;;;;;;;;;1.00;1.00;;;;;;;;5080001;27;45348;-47
2023/07/13 04:20:07;;;;;;;;;1.75;0.75;;;;;;;;5098428;27;45299;-48
2023/07/13 04:22:32;;;;;;;;;0.75;0.75;;;;;;;;5097201;27;45255;-49
2023/07/13 04:24:58;;;;;;;;;1.00;1.00;;;;;;;;5098840;27;45221;-46
2023/07/13 04:27:23;;;;;;;;;1.75;1.75;;;;;;;;5098373;27;45389;-48
2023/07/13 04:29:48;;;;;;;;;1.00;1.00;;;;;;;;5080211;27;45445;-47
2023/07/13 04:32:13;;;;;;;;;2.75;0.75;;;;;;;;5098133;27;45344;-46
2023/07/13 04:34:39;;;;;;;;;1.00;0.25;;;;;;;;5097442;27;45365;-48
2023/07/13 04:37:04;;;;;;;;;1.00;1.00;;;;;;;;5098248;27;46832;-49
2023/07/13 04:39:38;;;;;;;;;1.00;1.00;;;;;;;;5098074;27;45371;-47
2023/07/13 04:42:04;;;;;;;;;0.00;0.00;;;;;;;;5098378;27;45263;-47
2023/07/13 04:44:29;;;;;;;;;1.00;1.00;;;;;;;;5098175;27;45508;-48
2023/07/13 04:46:54;;;;;;;;;1.50;1.50;;;;;;;;5097988;27;46199;-46
2023/07/13 04:49:19;;;;;;;;;2.00;1.00;;;;;;;;5098059;27;45330;-47
2023/07/13 04:51:45;;;;;;;;;0.50;0.25;;;;;;;;5098202;27;45400;-46
2023/07/13 04:54:10;;;;;;;;;1.00;1.00;;;;;;;;5098562;27;45357;-47
2023/07/13 04:56:35;;;;;;;;;3.00;1.00;;;;;;;;5097855;27;45311;-47
2023/07/13 04:59:00;;;;;;;;;1.00;1.00;;;;;;;;5098023;27;45395;-49
2023/07/13 05:01:26;;;;;;;;;2.00;1.00;;;;;;;;5097976;27;45355;-47
2023/07/13 05:03:51;;;;;;;;;2.00;2.00;;;;;;;;5097250;27;45394;-46
2023/07/13 05:06:16;;;;;;;;;4.75;1.50;;;;;;;;5097730;27;46371;-48
2023/07/13 05:08:41;;;;;;;;;2.75;1.00;;;;;;;;5097768;27;45608;-49
2023/07/13 05:11:07;;;;;;;;;3.25;1.00;;;;;;;;5097947;27;45385;-48
2023/07/13 05:13:35;;;;;;;;;2.75;1.00;;;;;;;;5098249;27;45332;-47
2023/07/13 05:16:01;;;;;;;;;2.75;1.00;;;;;;;;5097539;27;46042;-47
2023/07/13 05:18:27;;;;;;;;;1.40;1.20;;;;;;;;5097894;27;45246;-45
2023/07/13 05:21:05;;;;;;;;;1.00;1.00;;;;;;;;5098057;27;45279;-49
2023/07/13 05:23:32;;;;;;;;;1.00;1.00;;;;;;;;5097825;27;45508;-45
2023/07/13 05:25:57;;;;;;;;;1.25;1.25;;;;;;;;5097464;27;46076;-49
2023/07/13 05:28:23;;;;;;;;;3.50;1.00;;;;;;;;5097535;27;45370;-49
2023/07/13 05:30:48;;;;;;;;;3.00;2.00;;;;;;;;5097246;27;45393;-50
2023/07/13 05:33:14;;;;;;;;;2.50;1.00;;;;;;;;5097754;27;45333;-47
2023/07/13 05:35:39;;;;;;;;;1.75;1.75;;;;;;;;5100786;27;47184;-48
2023/07/13 05:38:05;;;;;;;;;5.75;2.00;;;;;;;;5100952;27;45446;-49
2023/07/13 05:40:30;;;;;;;;;2.00;2.00;;;;;;;;5100941;27;45371;-49
2023/07/13 05:42:55;;;;;;;;;3.00;1.00;;;;;;;;5101525;27;45408;-44
2023/07/13 05:45:20;;;;;;;;;4.50;2.00;;;;;;;;5101178;27;45264;-45
2023/07/13 05:47:45;;;;;;;;;2.75;2.00;;;;;;;;5101058;27;45506;-48
2023/07/13 05:50:11;;;;;;;;;3.00;1.00;;;;;;;;5102073;27;45370;-45
2023/07/13 05:52:36;;;;;;;;;2.00;2.00;;;;;;;;5102114;27;45472;-47
2023/07/13 05:55:01;;;;;;;;;1.75;1.75;;;;;;;;5101004;27;46420;-44
2023/07/13 05:57:28;;;;;;;;;2.00;2.00;;;;;;;;5100728;27;45218;-43
2023/07/13 05:59:53;;;;;;;;;1.00;1.00;;;;;;;;5101550;27;45522;-43
2023/07/13 06:02:18;;;;;;;;;2.50;1.00;;;;;;;;5101781;27;45393;-46
2023/07/13 06:04:43;;;;;;;;;5.00;3.00;;;;;;;;5101027;27;45306;-49
2023/07/13 06:07:08;;;;;;;;;3.00;3.00;;;;;;;;5082851;27;45602;-48
2023/07/13 06:09:34;;;;;;;;;2.50;1.00;;;;;;;;5100966;27;45287;-45
2023/07/13 06:11:59;;;;;;;;;3.75;1.25;;;;;;;;5100798;27;45488;-44
2023/07/13 06:14:24;;;;;;;;;1.00;1.00;;;;;;;;5100382;27;46116;-47
2023/07/13 06:16:50;;;;;;;;;5.00;2.00;;;;;;;;5100594;27;45658;-48
2023/07/13 06:19:15;;;;;;;;;3.25;2.00;;;;;;;;5100847;27;45271;-46
2023/07/13 06:21:40;;;;;;;;;2.25;2.00;;;;;;;;5101596;27;45353;-46
2023/07/13 06:24:05;;;;;;;;;2.25;1.50;;;;;;;;5101184;27;46086;-46
2023/07/13 06:26:31;;;;;;;;;4.25;2.00;;;;;;;;5100578;27;45903;-45
2023/07/13 06:28:57;;;;;;;;;3.00;2.00;;;;;;;;5100843;27;45288;-44
2023/07/13 06:31:22;;;;;;;;;4.00;1.50;;;;;;;;5100991;27;45567;-46
2023/07/13 06:33:47;;;;;;;;;1.75;1.75;;;;;;;;5100700;27;46023;-46
2023/07/13 06:36:12;;;;;;;;;2.00;2.00;;;;;;;;5081340;27;45310;-46
2023/07/13 06:38:38;;;;;;;;;3.75;2.00;;;;;;;;5101018;27;45422;-46
2023/07/13 06:41:03;;;;;;;;;1.75;1.75;;;;;;;;5100773;27;45265;-44
2023/07/13 06:43:30;;;;;;;;;1.50;1.50;;;;;;;;5099908;27;46030;-45
2023/07/13 06:45:55;;;;;;;;;1.60;1.60;;;;;;;;5080429;27;45412;-46
2023/07/13 06:48:20;;;;;;;;;6.50;2.00;;;;;;;;5100309;27;45346;-44
2023/07/13 06:50:46;;;;;;;;;3.75;1.00;;;;;;;;5081740;27;45433;-47
2023/07/13 06:53:12;;;;;;;;;3.50;1.00;;;;;;;;5099936;27;45305;-44
2023/07/13 06:55:37;;;;;;;;;1.00;1.00;;;;;;;;5099584;27;45154;-46
2023/07/13 06:58:03;;;;;;;;;2.25;1.00;;;;;;;;5099957;27;45181;-45
2023/07/13 07:00:28;;;;;;;;;3.00;1.25;;;;;;;;5099900;27;45384;-44
2023/07/13 07:02:53;;;;;;;;;1.50;1.50;;;;;;;;5099675;27;45842;-45
2023/07/13 07:05:21;;;;;;;;;3.50;1.75;;;;;;;;5099609;27;45248;-45
2023/07/13 07:07:46;;;;;;;;;1.40;1.40;;;;;;;;5099511;27;45380;-44
2023/07/13 07:10:13;;;;;;;;;3.50;2.75;;;;;;;;5099172;27;45499;-48
2023/07/13 07:12:38;;;;;;;;;2.60;2.60;;;;;;;;5099368;27;45436;-44
2023/07/13 07:15:03;;;;;;;;;2.75;0.75;;;;;;;;5081264;27;45402;-43
2023/07/13 07:17:29;;;;;;;;;2.25;2.00;;;;;;;;5099494;27;45315;-43
2023/07/13 07:19:54;;;;;;;;;2.75;2.00;;;;;;;;5099616;27;45484;-45
2023/07/13 07:22:20;;;;;;;;;4.25;3.00;;;;;;;;5099480;27;45425;-45
2023/07/13 07:24:45;;;;;;;;;3.50;3.00;;;;;;;;5080657;27;45737;-45
2023/07/13 07:27:10;;;;;;;;;3.50;1.75;;;;;;;;5099273;27;45444;-46
2023/07/13 07:29:35;;;;;;;;;2.50;2.00;;;;;;;;5099467;27;45385;-48
2023/07/13 07:32:01;;;;;;;;;2.25;2.25;;;;;;;;5098926;27;46073;-48
2023/07/13 07:34:26;;;;;;;;;4.50;2.00;;;;;;;;5099431;27;45468;-50
2023/07/13 07:36:51;;;;;;;;;2.50;0.50;;;;;;;;5099511;27;45354;-48
2023/07/13 07:39:16;;;;;;;;;2.00;1.00;;;;;;;;5098713;27;45351;-47
2023/07/13 07:41:42;;;;;;;;;1.00;0.75;;;;;;;;5098540;27;45947;-39
2023/07/13 07:44:09;;;;;;;;;2.25;1.00;;;;;;;;5096324;27;45167;-52
2023/07/13 07:46:34;;;;;;;;;2.00;1.20;;;;;;;;5096133;27;45443;-40
2023/07/13 07:48:59;;;;;;;;;0.75;0.75;;;;;;;;5096481;27;45444;-43
2023/07/13 07:51:25;;;;;;;;;1.00;0.50;;;;;;;;5094536;27;45543;-43
2023/07/13 07:53:50;;;;;;;;;2.75;1.00;;;;;;;;5095747;27;45339;-42
2023/07/13 07:56:16;;;;;;;;;2.00;1.25;;;;;;;;5095345;27;45566;-43
2023/07/13 07:58:41;;;;;;;;;3.25;1.75;;;;;;;;5096008;27;45482;-48
2023/07/13 08:01:07;;;;;;;;;3.25;2.00;;;;;;;;5095060;27;46042;-41
2023/07/13 08:03:32;;;;;;;;;6.25;2.00;;;;;;;;5095789;27;45535;-42
2023/07/13 08:05:57;;;;;;;;;0.50;0.50;;;;;;;;5095936;27;45452;-48
2023/07/13 08:08:23;;;;;;;;;3.50;2.00;;;;;;;;5095608;27;45463;-52
2023/07/13 08:10:48;;;;;;;;;1.00;1.00;;;;;;;;5095518;27;47019;-48
2023/07/13 08:13:13;;;;;;;;;2.25;2.25;;;;;;;;5095546;27;45423;-49
2023/07/13 08:15:38;;;;;;;;;3.00;1.25;;;;;;;;5095096;27;45677;-48
2023/07/13 08:18:03;;;;;;;;;2.25;1.75;;;;;;;;5095747;27;45452;-45
2023/07/13 08:20:29;;;;;;;;;2.25;0.25;;;;;;;;5095112;27;45429;-44
2023/07/13 08:22:54;;;;;;;;;1.75;1.75;;;;;;;;5095321;27;45437;-51
2023/07/13 08:25:20;;;;;;;;;2.00;2.00;;;;;;;;5095751;27;45457;-46
2023/07/13 08:27:45;;;;;;;;;3.00;2.20;;;;;;;;5095453;27;45401;-48
2023/07/13 08:30:10;;;;;;;;;16.75;14.50;;;;;;;;5093670;27;46512;-46
2023/07/13 08:32:36;;;;;;;;;9.75;7.75;;;;;;;;5095043;27;45437;-52
2023/07/13 08:35:01;;;;;;;;;8.25;6.00;;;;;;;;5094524;27;45894;-50
2023/07/13 08:37:28;;;;;;;;;2.80;2.80;;;;;;;;5095015;27;46108;-48
2023/07/13 08:39:53;;;;;;;;;3.50;3.50;;;;;;;;5076674;27;47141;-49
2023/07/13 08:42:26;;;;;;;;;2.25;2.25;;;;;;;;5094922;27;45497;-47
2023/07/13 08:44:55;;;;;;;;;2.60;2.60;;;;;;;;5095454;27;45540;-45
2023/07/13 08:47:23;;;;;;;;;3.00;2.20;;;;;;;;5095208;27;45486;-51
2023/07/13 08:49:48;;;;;;;;;3.00;1.00;;;;;;;;5095040;27;46225;-50
2023/07/13 08:52:13;;;;;;;;;3.50;2.00;;;;;;;;5095038;27;45322;-52
2023/07/13 08:54:41;;;;;;;;;5.00;3.50;;;;;;;;5095403;27;45535;-47
2023/07/13 08:57:14;;;;;;;;;5.20;1.60;;;;;;;;5093546;27;45563;-51
2023/07/13 08:59:39;;;;;;;;;3.00;3.00;;;;;;;;5094504;27;45500;-49
2023/07/13 09:02:07;;;;;;;;;1.00;1.00;;;;;;;;5094727;27;45540;-50
2023/07/13 09:04:37;;;;;;;;;2.20;0.80;;;;;;;;5094509;27;45199;-51
2023/07/13 09:07:02;;;;;;;;;2.80;2.00;;;;;;;;5095062;27;45460;-45
2023/07/13 09:09:28;;;;;;;;;2.75;2.00;;;;;;;;5093559;27;46794;-44
2023/07/13 09:12:25;;;;;;;;;2.50;1.00;;;;;;;;5094324;27;45843;-45
2023/07/13 09:14:52;;;;;;;;;3.00;1.80;;;;;;;;5029348;28;45495;-50
2023/07/13 09:17:20;;;;;;;;;2.00;2.00;;;;;;;;5031733;28;45436;-52
2023/07/13 09:19:48;;;;;;;;;2.60;1.00;;;;;;;;5030550;28;46387;-50
2023/07/13 09:22:16;;;;;;;;;3.20;2.00;;;;;;;;5031435;28;45543;-45
2023/07/13 09:24:44;;;;;;;;;2.40;2.40;;;;;;;;5031637;28;45419;-48
2023/07/13 09:27:30;;;;;;;;;2.80;2.80;;;;;;;;5031190;28;45408;-48
2023/07/13 09:30:22;;;;;;;;;2.60;0.60;;;;;;;;5030381;28;47025;-47
2023/07/13 09:32:50;;;;;;;;;1.80;1.80;;;;;;;;5029198;28;45396;-51
2023/07/13 09:35:18;;;;;;;;;1.80;1.60;;;;;;;;5031350;28;45406;-44
2023/07/13 09:37:45;;;;;;;;;2.80;0.80;;;;;;;;5031145;28;45415;-45
2023/07/13 09:40:12;;;;;;;;;1.00;1.00;;;;;;;;5031028;28;47495;-43
2023/07/13 09:42:38;;;;;;;;;6.60;2.80;;;;;;;;5030962;28;45852;-48
2023/07/13 09:45:03;;;;;;;;;1.25;1.25;;;;;;;;5031250;28;45796;-47
2023/07/13 09:47:29;;;;;;;;;4.00;2.25;;;;;;;;5030862;28;45916;-48
2023/07/13 09:49:56;;;;;;;;;3.60;0.80;;;;;;;;5048149;27;45448;-45
2023/07/13 09:52:21;;;;;;;;;0.60;0.60;;;;;;;;5094023;27;45829;-46
2023/07/13 09:54:48;;;;;;;;;3.25;3.25;;;;;;;;5094259;27;45646;-44
2023/07/13 09:57:18;;;;;;;;;0.00;0.00;;;;;;;;5093916;27;45472;-41
2023/07/13 09:59:46;;;;;;;;;2.20;2.20;;;;;;;;5093665;27;46374;-43
2023/07/13 10:02:25;;;;;;;;;3.60;2.40;;;;;;;;5093931;27;45596;-42
2023/07/13 10:04:58;;;;;;;;;3.60;3.00;;;;;;;;5094111;27;45415;-46
2023/07/13 10:07:24;;;;;;;;;1.00;1.00;;;;;;;;5093965;27;45519;-43
2023/07/13 10:10:00;;;;;;;;;2.75;2.75;;;;;;;;5095486;27;46674;-41
2023/07/13 10:12:27;;;;;;;;;2.00;2.00;;;;;;;;5095383;27;45455;-42
2023/07/13 10:14:54;;;;;;;;;3.20;1.20;;;;;;;;5096001;27;45469;-42
2023/07/13 10:17:25;;;;;;;;;4.00;1.80;;;;;;;;5096994;27;45303;-45
2023/07/13 10:19:50;;;;;;;;;1.40;1.00;;;;;;;;5097539;27;47494;-46
2023/07/13 10:22:37;;;;;;;;;1.75;1.25;;;;;;;;5100246;27;45445;-47
2023/07/13 10:25:02;;;;;;;;;0.80;0.80;;;;;;;;5100453;27;45368;-50
2023/07/13 10:27:36;;;;;;;;;1.00;1.00;;;;;;;;5100359;27;45448;-49
2023/07/13 10:30:09;;;;;;;;;2.00;1.20;;;;;;;;5100127;27;46357;-44
2023/07/13 10:32:35;;;;;;;;;2.00;1.00;;;;;;;;5100016;27;45391;-43
2023/07/13 10:35:02;;;;;;;;;2.00;2.00;;;;;;;;5100158;27;45503;-50
2023/07/13 10:37:30;;;;;;;;;4.00;2.80;;;;;;;;5100376;27;45447;-44
2023/07/13 10:39:57;;;;;;;;;2.00;2.00;;;;;;;;5099781;27;46427;-41
2023/07/13 10:42:30;;;;;;;;;2.80;1.20;;;;;;;;5099732;27;45424;-48
2023/07/13 10:44:56;;;;;;;;;4.00;2.00;;;;;;;;5081804;27;45172;-47
2023/07/13 10:47:22;;;;;;;;;3.00;1.00;;;;;;;;5100291;27;45231;-47
2023/07/13 10:49:50;;;;;;;;;2.00;1.80;;;;;;;;5099493;27;46189;-46
2023/07/13 10:52:48;;;;;;;;;4.80;1.80;;;;;;;;5099818;27;45425;-45
2023/07/13 10:55:32;;;;;;;;;5.20;2.00;;;;;;;;5036801;28;45391;-43
2023/07/13 10:58:33;;;;;;;;;4.40;3.60;;;;;;;;5036767;28;45454;-44
2023/07/13 11:01:03;;;;;;;;;5.00;3.40;;;;;;;;4996557;28;46402;-42
2023/07/13 11:03:29;;;;;;;;;2.00;2.00;;;;;;;;4996590;28;45393;-43
2023/07/13 11:06:09;;;;;;;;;1.00;1.00;;;;;;;;4997050;28;45190;-44
2023/07/13 11:08:46;;;;;;;;;2.00;2.00;;;;;;;;4997063;28;45451;-44
2023/07/13 11:11:24;;;;;;;;;3.20;2.20;;;;;;;;4996553;28;45572;-43
2023/07/13 11:13:49;;;;;;;;;2.20;2.20;;;;;;;;4996579;28;45560;-44
2023/07/13 11:16:17;;;;;;;;;3.00;1.00;;;;;;;;4996579;28;45578;-44
2023/07/13 11:18:45;;;;;;;;;7.00;4.00;;;;;;;;4996912;28;45433;-46
2023/07/13 11:21:18;;;;;;;;;4.20;4.20;;;;;;;;4996761;28;46312;-44
2023/07/13 11:23:45;;;;;;;;;5.20;3.80;;;;;;;;4996487;28;45446;-42
2023/07/13 11:26:28;;;;;;;;;2.00;2.00;;;;;;;;4996594;28;45486;-45
2023/07/13 11:28:53;;;;;;;;;2.80;2.80;;;;;;;;4996466;28;45293;-44
2023/07/13 11:31:22;;;;;;;;;4.00;3.00;;;;;;;;5022915;28;45484;-44
2023/07/13 11:33:52;;;;;;;;;1.00;1.00;;;;;;;;5037069;27;45444;-42
2023/07/13 11:36:21;;;;;;;;;2.00;2.00;;;;;;;;5099101;27;45426;-43
2023/07/13 11:38:51;;;;;;;;;1.80;1.80;;;;;;;;5099297;27;45343;-45
2023/07/13 11:41:19;;;;;;;;;1.80;1.80;;;;;;;;5098818;27;47285;-43
2023/07/13 11:43:45;;;;;;;;;3.00;2.00;;;;;;;;5098885;27;45311;-41
2023/07/13 11:46:23;;;;;;;;;3.00;1.25;;;;;;;;5099028;27;45520;-43
2023/07/13 11:48:49;;;;;;;;;1.00;1.00;;;;;;;;5098910;27;45322;-44
2023/07/13 11:51:26;;;;;;;;;1.00;1.00;;;;;;;;5098945;27;46013;-44
2023/07/13 11:53:51;;;;;;;;;3.40;0.80;;;;;;;;5098595;27;45265;-45
2023/07/13 11:56:17;;;;;;;;;1.00;0.00;;;;;;;;5098917;27;45321;-44
2023/07/13 11:58:43;;;;;;;;;3.50;2.75;;;;;;;;5098895;27;45377;-43
2023/07/13 12:01:25;;;;;;;;;4.40;2.40;;;;;;;;5098634;27;45259;-47
2023/07/13 12:03:51;;;;;;;;;1.00;1.00;;;;;;;;5080294;27;45230;-43
2023/07/13 12:06:30;;;;;;;;;1.20;1.20;;;;;;;;5098900;27;45251;-44
2023/07/13 12:08:56;;;;;;;;;1.80;1.80;;;;;;;;5099018;27;45326;-41
2023/07/13 12:11:22;;;;;;;;;1.80;1.80;;;;;;;;5098545;27;46240;-41
2023/07/13 12:13:47;;;;;;;;;1.25;0.75;;;;;;;;5098618;27;45399;-45
2023/07/13 12:16:22;;;;;;;;;4.00;2.00;;;;;;;;5098651;27;45305;-46
2023/07/13 12:18:48;;;;;;;;;1.00;0.80;;;;;;;;5098843;27;45325;-48
2023/07/13 12:21:16;;;;;;;;;1.00;1.00;;;;;;;;5098202;27;47109;-42
2023/07/13 12:23:43;;;;;;;;;3.00;1.00;;;;;;;;5080228;27;45825;-43
2023/07/13 12:26:11;;;;;;;;;1.00;1.00;;;;;;;;5098467;27;45252;-42
2023/07/13 12:28:43;;;;;;;;;1.40;1.40;;;;;;;;5098417;27;45481;-44
2023/07/13 12:31:30;;;;;;;;;3.20;1.00;;;;;;;;5097942;27;46244;-45
2023/07/13 12:33:57;;;;;;;;;0.80;0.80;;;;;;;;5087721;27;45324;-47
2023/07/13 12:36:22;;;;;;;;;1.00;1.00;;;;;;;;5097041;27;45283;-46
2023/07/13 12:38:48;;;;;;;;;1.00;1.00;;;;;;;;5098742;27;45243;-47
2023/07/13 12:41:14;;;;;;;;;1.25;0.50;;;;;;;;5098054;27;46339;-46
2023/07/13 12:43:40;;;;;;;;;0.00;0.00;;;;;;;;5098017;27;45541;-45
2023/07/13 12:46:16;;;;;;;;;2.75;2.75;;;;;;;;5098423;27;45259;-44
2023/07/13 12:48:42;;;;;;;;;2.00;2.00;;;;;;;;5098411;27;45449;-45
2023/07/13 12:51:10;;;;;;;;;2.50;0.00;;;;;;;;5097920;27;46328;-43
2023/07/13 12:53:39;;;;;;;;;5.60;0.80;;;;;;;;5097964;27;45388;-43
2023/07/13 12:56:04;;;;;;;;;0.80;0.80;;;;;;;;5098194;27;45200;-43
2023/07/13 12:58:35;;;;;;;;;1.00;1.00;;;;;;;;5098392;27;45399;-42
2023/07/13 13:01:01;;;;;;;;;0.00;0.00;;;;;;;;5097876;27;45397;-43
2023/07/13 13:03:27;;;;;;;;;2.20;0.00;;;;;;;;5097045;27;45402;-45
2023/07/13 13:06:00;;;;;;;;;1.00;1.00;;;;;;;;5098143;27;45316;-46
2023/07/13 13:08:25;;;;;;;;;1.60;1.60;;;;;;;;5098072;27;45397;-44
2023/07/13 13:10:50;;;;;;;;;2.25;2.00;;;;;;;;5097734;27;45400;-46
2023/07/13 13:13:16;;;;;;;;;0.00;0.00;;;;;;;;5097631;27;45412;-44
2023/07/13 13:15:41;;;;;;;;;1.25;0.75;;;;;;;;5097691;27;45369;-44
2023/07/13 13:18:17;;;;;;;;;0.75;0.75;;;;;;;;5097803;27;45399;-45
2023/07/13 13:20:43;;;;;;;;;1.00;1.00;;;;;;;;5097582;27;47125;-46
2023/07/13 13:23:11;;;;;;;;;0.00;0.00;;;;;;;;5097628;27;45286;-46
2023/07/13 13:25:37;;;;;;;;;0.80;0.80;;;;;;;;5097777;27;45294;-45
2023/07/13 13:28:02;;;;;;;;;1.50;1.50;;;;;;;;5096999;27;45315;-46
2023/07/13 13:30:28;;;;;;;;;1.00;0.25;;;;;;;;5097088;27;47235;-43
2023/07/13 13:32:53;;;;;;;;;1.00;1.00;;;;;;;;5097453;27;45403;-45
2023/07/13 13:35:20;;;;;;;;;0.25;0.25;;;;;;;;5097412;27;45307;-42
2023/07/13 13:37:47;;;;;;;;;0.00;0.00;;;;;;;;5079300;27;45357;-46
2023/07/13 13:40:17;;;;;;;;;1.00;1.00;;;;;;;;5097398;27;45536;-41
2023/07/13 13:42:42;;;;;;;;;2.40;2.40;;;;;;;;5097321;27;45593;-44
2023/07/13 13:45:12;;;;;;;;;0.75;0.75;;;;;;;;5097125;27;45418;-43
2023/07/13 13:47:38;;;;;;;;;1.20;1.20;;;;;;;;5097207;27;45259;-45
2023/07/13 13:50:12;;;;;;;;;2.25;0.50;;;;;;;;5095969;27;45432;-46
2023/07/13 13:52:38;;;;;;;;;0.00;0.00;;;;;;;;5097123;27;45353;-44
2023/07/13 13:55:11;;;;;;;;;1.00;1.00;;;;;;;;5098416;27;45526;-44
2023/07/13 13:57:36;;;;;;;;;1.60;1.60;;;;;;;;5100941;27;45476;-42
2023/07/13 14:00:02;;;;;;;;;0.25;0.25;;;;;;;;5100839;27;45416;-45
2023/07/13 14:02:31;;;;;;;;;2.00;0.75;;;;;;;;5100651;27;45243;-45
2023/07/13 14:05:00;;;;;;;;;1.20;0.80;;;;;;;;5100766;27;45473;-44
2023/07/13 14:07:26;;;;;;;;;2.00;0.40;;;;;;;;5101185;27;45293;-45
2023/07/13 14:09:52;;;;;;;;;0.00;0.00;;;;;;;;5100538;27;46074;-44
2023/07/13 14:12:18;;;;;;;;;1.00;1.00;;;;;;;;5100830;27;45410;-45
2023/07/13 14:14:43;;;;;;;;;1.00;0.75;;;;;;;;5100532;27;45395;-47
2023/07/13 14:17:17;;;;;;;;;1.00;1.00;;;;;;;;5100776;27;45257;-46
2023/07/13 14:19:43;;;;;;;;;1.00;1.00;;;;;;;;5100593;27;45455;-43
2023/07/13 14:22:08;;;;;;;;;2.00;2.00;;;;;;;;5100493;27;45363;-45
2023/07/13 14:24:33;;;;;;;;;1.75;1.00;;;;;;;;5100691;27;45271;-43
2023/07/13 14:26:58;;;;;;;;;0.75;0.75;;;;;;;;5100804;27;45280;-45
2023/07/13 14:29:25;;;;;;;;;2.25;1.00;;;;;;;;5099813;27;45403;-44
2023/07/13 14:31:50;;;;;;;;;0.40;0.40;;;;;;;;5099969;27;45480;-43
2023/07/13 14:34:15;;;;;;;;;2.00;2.00;;;;;;;;5100354;27;45182;-43
2023/07/13 14:36:42;;;;;;;;;1.25;1.25;;;;;;;;5100089;27;45506;-46
2023/07/13 14:39:16;;;;;;;;;4.60;1.00;;;;;;;;5100094;27;46986;-47
2023/07/13 14:41:41;;;;;;;;;5.00;2.20;;;;;;;;5100105;27;45231;-46